Skip Navigation Links Skip Navigation Links

Current Weather

Fulton County Airport-Brown Field, Atlanta

For information only: do not use for flight planning or navigation.
Latest weather
Observation time Tuesday, January 26, 2021 7:53 PM EST
Local time Tuesday, January 26, 2021 8:40 PM EST
Flight conditions Visual Meteorological Conditions
Winds
Wind speed calm
Visibility 10 mi.
Sky condition
Ceiling 9,000 ft. overcast
Cloud layer overcast 9,000 ft.
Temperature 58°F
Dewpoint 50°F
Altimeter 29.95 in.Hg
Derived measurements
Relative humidity 75%
Density altitude 911 ft.
Sea-level pressure 29.94 in.Hg
Remarks
Automated weather observing station with precipitation discriminator.
METAR KFTY 270053Z 00000KT 10SM OVC090 14/10 A2995 RMK AO2 SLP139 T01440100

Settings

Location code

InnerDrive.Weather 4.0.6770.0 Release CLR 4.0.30319.42000
Copyright ©2018 Inner Drive Technology. All rights reserved. Portions Copyright ©1986-2018 David Braverman.

Find weather

Site navigation


Skip Navigation Links

Place info

Page info

PayPal - The safer, easier way to pay online!

Return home.

Copyright ©2021 Inner Drive Technology. Purveyors of fine, hand-crafted computer software. Page printed 2021-01-27T01:40:28 UTC.